createdAt,value
2018-12-26T00:00:18.462Z,3.00
2018-12-26T00:02:47.011Z,3.00
2018-12-26T00:05:15.493Z,3.10
2018-12-26T00:07:43.931Z,3.20
2018-12-26T00:10:12.410Z,3.20
2018-12-26T00:12:40.851Z,3.20
2018-12-26T00:15:09.376Z,3.20
2018-12-26T00:17:37.809Z,3.10
2018-12-26T00:20:06.470Z,3.10
2018-12-26T00:22:35.154Z,3.10
2018-12-26T00:25:22.985Z,3.10
2018-12-26T00:27:51.476Z,3.10
2018-12-26T00:30:20.043Z,3.10
2018-12-26T00:32:48.483Z,3.20
2018-12-26T00:35:22.860Z,3.10
2018-12-26T00:37:51.349Z,3.10
2018-12-26T00:40:19.791Z,3.00
2018-12-26T00:42:48.247Z,3.00
2018-12-26T00:45:16.824Z,3.00
2018-12-26T00:47:45.290Z,2.90
2018-12-26T00:50:13.809Z,2.90
2018-12-26T00:52:42.347Z,2.80
2018-12-26T00:55:10.787Z,2.80
2018-12-26T00:57:39.240Z,2.90
2018-12-26T01:00:27.032Z,2.90
2018-12-26T01:02:55.504Z,2.80
2018-12-26T01:05:23.945Z,2.70
2018-12-26T01:07:52.496Z,2.70
2018-12-26T01:10:21.004Z,2.70
2018-12-26T01:13:08.799Z,2.70
2018-12-26T01:15:37.241Z,2.80
2018-12-26T01:18:05.748Z,2.80
2018-12-26T01:20:34.203Z,2.80
2018-12-26T01:23:02.658Z,2.80
2018-12-26T01:25:32.188Z,2.80
2018-12-26T01:28:19.967Z,2.70
2018-12-26T01:30:49.404Z,2.70
2018-12-26T01:33:37.183Z,2.70
2018-12-26T01:36:05.665Z,2.70
2018-12-26T01:38:34.095Z,2.60
2018-12-26T01:41:03.611Z,2.50
2018-12-26T01:43:32.050Z,2.50
2018-12-26T01:46:00.504Z,2.60
2018-12-26T01:48:28.953Z,2.60
2018-12-26T01:50:58.453Z,2.60
2018-12-26T01:53:26.890Z,2.60
2018-12-26T01:55:55.356Z,2.60
2018-12-26T01:58:23.891Z,2.60
2018-12-26T02:00:55.336Z,2.50
2018-12-26T02:03:23.800Z,2.50
2018-12-26T02:05:52.256Z,2.50
2018-12-26T02:08:20.730Z,2.50
2018-12-26T02:10:49.174Z,2.50
2018-12-26T02:13:17.640Z,2.50
2018-12-26T02:15:46.091Z,2.50
2018-12-26T02:18:14.528Z,2.50
2018-12-26T02:20:43.063Z,2.50
2018-12-26T02:23:11.505Z,2.50
2018-12-26T02:25:39.986Z,2.50
2018-12-26T02:28:08.439Z,2.40
2018-12-26T02:30:36.895Z,2.40
2018-12-26T02:33:05.332Z,2.40
2018-12-26T02:35:33.909Z,2.30
2018-12-26T02:38:02.357Z,2.20
2018-12-26T02:40:30.866Z,2.20
2018-12-26T02:42:59.335Z,2.20
2018-12-26T02:45:47.142Z,2.10
2018-12-26T02:48:15.572Z,2.10
2018-12-26T02:50:44.183Z,2.20
2018-12-26T02:53:12.642Z,2.30
2018-12-26T02:55:41.081Z,2.30
2018-12-26T02:58:09.539Z,2.30
2018-12-26T03:00:37.976Z,2.30
2018-12-26T03:03:06.431Z,2.20
2018-12-26T03:05:34.872Z,2.20
2018-12-26T03:08:03.308Z,2.10
2018-12-26T03:10:31.779Z,2.20
2018-12-26T03:13:00.224Z,2.10
2018-12-26T03:15:28.744Z,2.10
2018-12-26T03:17:57.252Z,2.00
2018-12-26T03:20:25.748Z,1.90
2018-12-26T03:22:54.235Z,1.90
2018-12-26T03:25:42.051Z,1.90
2018-12-26T03:28:10.514Z,1.80
2018-12-26T03:30:39.027Z,1.80
2018-12-26T03:33:07.543Z,1.70
2018-12-26T03:35:36.053Z,1.80
2018-12-26T03:38:04.740Z,1.80
2018-12-26T03:40:33.275Z,1.90
2018-12-26T03:43:01.863Z,1.90
2018-12-26T03:45:31.763Z,1.90
2018-12-26T03:48:00.739Z,1.90
2018-12-26T03:50:29.180Z,2.00
2018-12-26T03:52:57.795Z,2.00
2018-12-26T03:55:26.388Z,1.90
2018-12-26T03:57:54.864Z,1.90
2018-12-26T04:00:23.561Z,1.80
2018-12-26T04:02:52.213Z,1.70
2018-12-26T04:05:20.905Z,1.70
2018-12-26T04:07:49.353Z,1.70
2018-12-26T04:10:17.942Z,1.70
2018-12-26T04:12:46.561Z,1.60
2018-12-26T04:15:15.043Z,1.60
2018-12-26T04:18:02.820Z,1.60
2018-12-26T04:20:31.439Z,1.70
2018-12-26T04:23:00.236Z,1.70
2018-12-26T04:25:29.093Z,1.80
2018-12-26T04:27:57.553Z,1.80
2018-12-26T04:30:26.004Z,1.90
2018-12-26T04:32:54.436Z,2.00
2018-12-26T04:35:22.901Z,2.10
2018-12-26T04:37:51.357Z,2.10
2018-12-26T04:40:19.807Z,2.20
2018-12-26T04:42:48.262Z,2.20
2018-12-26T04:45:16.712Z,2.20
2018-12-26T04:47:45.166Z,2.20
2018-12-26T04:50:13.605Z,2.20
2018-12-26T04:52:42.060Z,2.20
2018-12-26T04:55:10.506Z,2.20
2018-12-26T04:57:38.972Z,2.20
2018-12-26T05:00:07.538Z,2.10
2018-12-26T05:02:36.087Z,2.00
2018-12-26T05:05:04.969Z,2.00
2018-12-26T05:07:33.460Z,2.00
2018-12-26T05:10:01.900Z,1.90
2018-12-26T05:12:30.471Z,1.90
2018-12-26T05:14:59.125Z,1.90
2018-12-26T05:17:27.564Z,1.90
2018-12-26T05:19:56.179Z,1.80
2018-12-26T05:22:24.680Z,1.90
2018-12-26T05:24:53.310Z,1.90
2018-12-26T05:27:21.757Z,1.80
2018-12-26T05:29:50.260Z,1.80
2018-12-26T05:32:18.724Z,1.80
2018-12-26T05:34:47.161Z,1.70
2018-12-26T05:37:15.749Z,1.70
2018-12-26T05:39:44.247Z,1.70
2018-12-26T05:42:12.710Z,1.60
2018-12-26T05:44:41.156Z,1.60
2018-12-26T05:47:09.633Z,1.60
2018-12-26T05:49:38.080Z,1.60
2018-12-26T05:52:06.524Z,1.60
2018-12-26T05:54:34.993Z,1.60
2018-12-26T05:57:03.428Z,1.70
2018-12-26T05:59:31.891Z,1.60
2018-12-26T06:02:00.328Z,1.50
2018-12-26T06:04:28.787Z,1.50
2018-12-26T06:06:57.307Z,1.40
2018-12-26T06:09:25.799Z,1.40
2018-12-26T06:11:54.242Z,1.30
2018-12-26T06:14:42.040Z,1.30
2018-12-26T06:17:10.487Z,1.20
2018-12-26T06:19:38.943Z,1.30
2018-12-26T06:22:07.415Z,1.30
2018-12-26T06:24:35.863Z,1.30
2018-12-26T06:27:04.390Z,1.20
2018-12-26T06:29:32.901Z,1.20
2018-12-26T06:32:01.370Z,1.20
2018-12-26T06:34:49.147Z,1.10
2018-12-26T06:37:17.627Z,1.10
2018-12-26T06:39:46.083Z,1.00
2018-12-26T06:42:14.524Z,1.00
2018-12-26T06:44:43.009Z,1.00
2018-12-26T06:47:11.463Z,0.90
2018-12-26T06:49:39.922Z,0.90
2018-12-26T06:52:27.815Z,0.90
2018-12-26T06:54:56.343Z,0.80
2018-12-26T06:57:24.797Z,0.80
2018-12-26T06:59:53.261Z,0.70
2018-12-26T07:02:21.698Z,0.70
2018-12-26T07:04:50.209Z,0.70
2018-12-26T07:07:18.666Z,0.60
2018-12-26T07:09:47.116Z,0.60
2018-12-26T07:12:15.575Z,0.60
2018-12-26T07:14:44.043Z,0.60
2018-12-26T07:17:12.576Z,0.60
2018-12-26T07:20:02.042Z,0.60
2018-12-26T07:22:30.501Z,0.60
2018-12-26T07:24:58.959Z,0.70
2018-12-26T07:27:27.421Z,0.70
2018-12-26T07:29:55.872Z,0.70
2018-12-26T07:32:24.356Z,0.70
2018-12-26T07:34:52.807Z,0.70
2018-12-26T07:37:21.268Z,0.70
2018-12-26T07:39:49.729Z,0.80
2018-12-26T07:42:18.238Z,0.80
2018-12-26T07:44:46.765Z,0.80
2018-12-26T07:47:15.200Z,0.80
2018-12-26T07:49:43.725Z,0.80
2018-12-26T07:52:12.275Z,0.90
2018-12-26T07:54:40.748Z,1.00
2018-12-26T07:57:09.195Z,1.10
2018-12-26T07:59:37.956Z,1.10
2018-12-26T08:02:25.851Z,1.10
2018-12-26T08:05:13.657Z,1.10
2018-12-26T08:07:42.167Z,1.20
2018-12-26T08:10:10.696Z,1.20
2018-12-26T08:12:39.137Z,1.20
2018-12-26T08:15:10.740Z,1.30
2018-12-26T08:17:37.832Z,1.20
2018-12-26T08:20:27.896Z,1.30
2018-12-26T08:22:56.338Z,1.30
2018-12-26T08:25:24.797Z,1.30
2018-12-26T08:27:53.237Z,1.30
2018-12-26T08:30:21.671Z,1.30
2018-12-26T08:32:50.428Z,1.20
2018-12-26T08:35:24.668Z,1.20
2018-12-26T08:38:12.459Z,1.30
2018-12-26T08:40:40.907Z,1.30
2018-12-26T08:43:09.443Z,1.30
2018-12-26T08:45:37.912Z,1.30
2018-12-26T08:48:06.360Z,1.30
2018-12-26T08:50:34.828Z,1.40
2018-12-26T08:53:03.291Z,1.40
2018-12-26T08:55:31.728Z,1.30
2018-12-26T08:58:00.183Z,1.30
2018-12-26T09:00:28.636Z,1.30
2018-12-26T09:02:57.202Z,1.30
2018-12-26T09:05:25.867Z,1.30
2018-12-26T09:07:54.400Z,1.40
2018-12-26T09:10:22.846Z,1.40
2018-12-26T09:12:51.297Z,1.40
2018-12-26T09:15:19.735Z,1.50
2018-12-26T09:17:48.185Z,1.50
2018-12-26T09:20:17.615Z,1.50
2018-12-26T09:23:05.387Z,1.50
2018-12-26T09:25:33.907Z,1.50
2018-12-26T09:28:02.376Z,1.60
2018-12-26T09:30:30.823Z,1.60
2018-12-26T09:32:59.254Z,1.70
2018-12-26T09:35:27.736Z,1.70
2018-12-26T09:37:56.243Z,1.80
2018-12-26T09:40:24.703Z,1.80
2018-12-26T09:42:53.175Z,1.90
2018-12-26T09:45:21.603Z,1.80
2018-12-26T09:47:50.058Z,1.80
2018-12-26T09:50:37.836Z,1.60
2018-12-26T09:53:06.302Z,1.70
2018-12-26T09:55:34.740Z,1.90
2018-12-26T09:58:22.531Z,2.00
2018-12-26T10:00:50.991Z,2.10
2018-12-26T10:03:19.515Z,2.30
2018-12-26T10:05:47.957Z,2.30
2018-12-26T10:08:16.411Z,2.40
2018-12-26T10:11:04.198Z,2.50
2018-12-26T10:13:32.669Z,2.50
2018-12-26T10:16:01.290Z,2.70
2018-12-26T10:18:29.789Z,2.80
2018-12-26T10:20:58.298Z,2.80
2018-12-26T10:23:26.746Z,2.80
2018-12-26T10:25:55.192Z,2.80
2018-12-26T10:28:24.619Z,2.80
2018-12-26T10:30:53.091Z,2.80
2018-12-26T10:33:21.530Z,2.80
2018-12-26T10:35:50.080Z,2.80
2018-12-26T10:38:18.512Z,2.80
2018-12-26T10:40:46.977Z,2.80
2018-12-26T10:43:15.476Z,2.90
2018-12-26T10:45:43.938Z,3.10
2018-12-26T10:48:12.378Z,3.20
2018-12-26T10:50:40.821Z,3.30
2018-12-26T10:53:09.268Z,3.40
2018-12-26T10:55:37.724Z,3.40
2018-12-26T10:58:06.163Z,3.30
2018-12-26T11:00:34.628Z,3.40
2018-12-26T11:03:03.071Z,3.50
2018-12-26T11:05:31.544Z,3.50
2018-12-26T11:08:00.051Z,3.60
2018-12-26T11:10:28.599Z,3.70
2018-12-26T11:12:57.156Z,3.60
2018-12-26T11:15:29.471Z,3.70
2018-12-26T11:17:57.949Z,3.80
2018-12-26T11:20:26.758Z,3.80
2018-12-26T11:22:56.258Z,3.80
2018-12-26T11:25:24.702Z,3.80
2018-12-26T11:28:00.017Z,3.90
2018-12-26T11:30:28.511Z,4.00
2018-12-26T11:32:56.990Z,4.00
2018-12-26T11:35:25.531Z,4.20
2018-12-26T11:37:54.059Z,4.20
2018-12-26T11:40:22.579Z,4.20
2018-12-26T11:42:51.102Z,4.10
2018-12-26T11:45:19.534Z,4.10
2018-12-26T11:47:48.063Z,4.00
2018-12-26T11:50:16.607Z,4.00
2018-12-26T11:53:04.444Z,4.10
2018-12-26T11:55:32.909Z,4.20
2018-12-26T11:58:01.361Z,4.20
2018-12-26T12:00:49.204Z,4.30
2018-12-26T12:03:17.670Z,4.30
2018-12-26T12:05:46.179Z,4.40
2018-12-26T12:08:14.628Z,4.50
2018-12-26T12:10:43.140Z,4.60
2018-12-26T12:13:11.640Z,4.80
2018-12-26T12:15:40.093Z,4.80
2018-12-26T12:18:11.938Z,4.80
2018-12-26T12:20:40.391Z,4.90
2018-12-26T12:23:08.831Z,5.00
2018-12-26T12:25:56.710Z,5.10
2018-12-26T12:28:25.215Z,5.30
2018-12-26T12:30:53.668Z,5.30
2018-12-26T12:33:22.104Z,5.30
2018-12-26T12:35:50.727Z,5.30
2018-12-26T12:38:19.160Z,5.40
2018-12-26T12:40:47.756Z,5.40
2018-12-26T12:43:16.424Z,5.40
2018-12-26T12:45:45.055Z,5.40
2018-12-26T12:48:13.638Z,5.40
2018-12-26T12:50:47.956Z,5.40
2018-12-26T12:53:18.516Z,5.60
2018-12-26T12:55:47.113Z,5.60
2018-12-26T12:58:16.144Z,5.60
2018-12-26T13:00:44.652Z,5.50
2018-12-26T13:03:32.619Z,5.50
2018-12-26T13:06:01.049Z,5.60
2018-12-26T13:08:29.497Z,5.60
2018-12-26T13:10:58.011Z,5.80
2018-12-26T13:13:26.463Z,5.90
2018-12-26T13:15:54.916Z,5.90
2018-12-26T13:18:23.383Z,6.00
2018-12-26T13:20:51.819Z,6.10
2018-12-26T13:23:20.251Z,6.10
2018-12-26T13:25:48.707Z,6.20
2018-12-26T13:28:17.159Z,6.30
2018-12-26T13:30:45.656Z,6.30
2018-12-26T13:33:14.091Z,6.40
2018-12-26T13:35:42.547Z,6.40
2018-12-26T13:38:10.995Z,6.60
2018-12-26T13:40:39.471Z,6.70
2018-12-26T13:43:07.899Z,6.70
2018-12-26T13:45:36.343Z,6.70
2018-12-26T13:48:04.798Z,6.70
2018-12-26T13:50:33.244Z,6.80
2018-12-26T13:53:08.555Z,6.90
2018-12-26T13:55:36.995Z,6.90
2018-12-26T13:58:05.453Z,6.80
2018-12-26T14:00:33.894Z,6.70
2018-12-26T14:03:02.343Z,6.50
2018-12-26T14:05:30.780Z,6.30
2018-12-26T14:07:59.239Z,6.10
2018-12-26T14:10:28.663Z,6.10
2018-12-26T14:12:57.158Z,6.20
2018-12-26T14:15:25.608Z,6.20
2018-12-26T14:17:55.126Z,6.30
2018-12-26T14:20:23.631Z,6.30
2018-12-26T14:22:52.075Z,6.30
2018-12-26T14:25:20.535Z,6.30
2018-12-26T14:27:48.980Z,6.30
2018-12-26T14:30:36.764Z,6.30
2018-12-26T14:33:05.209Z,6.20
2018-12-26T14:35:33.740Z,6.00
2018-12-26T14:38:03.161Z,5.90
2018-12-26T14:40:31.619Z,5.90
2018-12-26T14:43:00.166Z,5.90
2018-12-26T14:45:28.687Z,5.80
2018-12-26T14:47:57.207Z,5.80
2018-12-26T14:50:25.655Z,5.70
2018-12-26T14:52:55.175Z,5.60
2018-12-26T14:55:23.629Z,5.60
2018-12-26T14:57:52.078Z,5.60
2018-12-26T15:00:20.519Z,5.60
2018-12-26T15:02:48.970Z,5.50
2018-12-26T15:05:17.409Z,5.40
2018-12-26T15:07:45.907Z,5.40
2018-12-26T15:10:14.531Z,5.40
2018-12-26T15:12:43.040Z,5.40
2018-12-26T15:15:11.576Z,5.40
2018-12-26T15:17:40.074Z,5.30
2018-12-26T15:20:08.548Z,5.30
2018-12-26T15:22:37.005Z,5.30
2018-12-26T15:25:05.612Z,5.30
2018-12-26T15:27:34.178Z,5.20
2018-12-26T15:30:02.681Z,5.20
2018-12-26T15:32:31.115Z,5.10
2018-12-26T15:34:59.577Z,5.10
2018-12-26T15:37:28.008Z,5.10
2018-12-26T15:39:56.531Z,5.00
2018-12-26T15:42:25.021Z,5.00
2018-12-26T15:44:55.019Z,5.00
2018-12-26T15:47:24.464Z,5.00
2018-12-26T15:49:52.927Z,5.00
2018-12-26T15:52:21.427Z,5.00
2018-12-26T15:54:49.919Z,5.00
2018-12-26T15:57:18.360Z,5.00
2018-12-26T15:59:46.817Z,5.00
2018-12-26T16:02:15.342Z,5.00
2018-12-26T16:04:43.909Z,5.00
2018-12-26T16:07:12.356Z,5.00
2018-12-26T16:09:42.614Z,4.90
2018-12-26T16:12:11.049Z,4.80
2018-12-26T16:14:46.563Z,4.80
2018-12-26T16:17:15.016Z,4.80
2018-12-26T16:19:43.456Z,4.80
2018-12-26T16:22:11.903Z,4.80
2018-12-26T16:24:40.352Z,4.80
2018-12-26T16:27:08.863Z,4.90
2018-12-26T16:29:37.290Z,4.90
2018-12-26T16:32:05.840Z,4.90
2018-12-26T16:34:34.273Z,4.90
2018-12-26T16:37:06.237Z,4.80
2018-12-26T16:39:35.885Z,4.80
2018-12-26T16:42:04.585Z,4.80
2018-12-26T16:44:33.039Z,4.80
2018-12-26T16:49:45.923Z,4.70
2018-12-26T16:52:14.360Z,4.70
2018-12-26T16:54:42.841Z,4.70
2018-12-26T16:57:11.272Z,4.70
2018-12-26T16:59:39.727Z,4.60
2018-12-26T17:02:08.167Z,4.60
2018-12-26T17:04:36.624Z,4.60
2018-12-26T17:07:05.230Z,4.50
2018-12-26T17:09:33.691Z,4.50
2018-12-26T17:12:21.531Z,4.50
2018-12-26T17:14:49.995Z,4.50
2018-12-26T17:17:18.437Z,4.50
2018-12-26T17:19:46.884Z,4.40
2018-12-26T17:22:16.310Z,4.40
2018-12-26T17:24:44.758Z,4.40
2018-12-26T17:27:13.264Z,4.40
2018-12-26T17:29:41.715Z,4.40
2018-12-26T17:32:10.147Z,4.30
2018-12-26T17:34:38.624Z,4.40
2018-12-26T17:37:07.069Z,4.30
2018-12-26T17:39:35.505Z,4.30
2018-12-26T17:42:03.967Z,4.30
2018-12-26T17:44:32.408Z,4.30
2018-12-26T17:47:00.935Z,4.30
2018-12-26T17:49:48.782Z,4.20
2018-12-26T17:52:17.230Z,4.20
2018-12-26T17:55:06.564Z,4.20
2018-12-26T17:57:35.038Z,4.10
2018-12-26T18:00:12.506Z,4.10
2018-12-26T18:02:41.043Z,4.10
2018-12-26T18:05:09.491Z,4.10
2018-12-26T18:07:38.012Z,4.00
2018-12-26T18:10:07.195Z,3.90
2018-12-26T18:12:35.636Z,3.90
2018-12-26T18:15:04.547Z,3.90
2018-12-26T18:17:33.003Z,3.90
2018-12-26T18:20:01.455Z,3.90
2018-12-26T18:22:29.917Z,3.90
2018-12-26T18:25:00.234Z,3.90
2018-12-26T18:27:28.548Z,3.90
2018-12-26T18:29:57.015Z,3.90
2018-12-26T18:32:25.494Z,3.90
2018-12-26T18:34:53.951Z,3.90
2018-12-26T18:37:22.388Z,3.80
2018-12-26T18:39:50.875Z,3.70
2018-12-26T18:42:19.507Z,3.70
2018-12-26T18:44:47.948Z,3.80
2018-12-26T18:47:16.429Z,3.70
2018-12-26T18:49:44.874Z,3.70
2018-12-26T18:52:18.156Z,3.80
2018-12-26T18:54:46.636Z,3.70
2018-12-26T18:57:16.077Z,3.70
2018-12-26T18:59:44.510Z,3.70
2018-12-26T19:02:18.892Z,3.70
2018-12-26T19:04:47.335Z,3.70
2018-12-26T19:07:15.784Z,3.70
2018-12-26T19:09:44.239Z,3.60
2018-12-26T19:12:12.695Z,3.60
2018-12-26T19:14:41.140Z,3.50
2018-12-26T19:17:09.613Z,3.50
2018-12-26T19:19:38.052Z,3.50
2018-12-26T19:22:06.698Z,3.50
2018-12-26T19:24:35.221Z,3.50
2018-12-26T19:27:03.676Z,3.40
2018-12-26T19:29:32.147Z,3.40
2018-12-26T19:32:00.582Z,3.40
2018-12-26T19:34:31.099Z,3.30
2018-12-26T19:36:59.551Z,3.30
2018-12-26T19:39:28.127Z,3.30
2018-12-26T19:41:56.572Z,3.30
2018-12-26T19:44:25.050Z,3.30
2018-12-26T19:46:54.453Z,3.30
2018-12-26T19:49:23.152Z,3.30
2018-12-26T19:51:51.669Z,3.20
2018-12-26T19:54:22.812Z,3.20
2018-12-26T19:56:51.277Z,3.30
2018-12-26T19:59:19.787Z,3.30
2018-12-26T20:01:48.571Z,3.30
2018-12-26T20:04:17.171Z,3.30
2018-12-26T20:06:45.660Z,3.30
2018-12-26T20:09:14.095Z,3.20
2018-12-26T20:11:42.573Z,3.30
2018-12-26T20:14:13.839Z,3.30
2018-12-26T20:16:42.292Z,3.20
2018-12-26T20:19:10.732Z,3.20
2018-12-26T20:21:39.210Z,3.20
2018-12-26T20:24:07.645Z,3.20
2018-12-26T20:26:37.094Z,3.20
2018-12-26T20:29:05.666Z,3.20
2018-12-26T20:31:34.117Z,3.20
2018-12-26T20:34:03.123Z,3.20
2018-12-26T20:36:31.916Z,3.20
2018-12-26T20:39:00.432Z,3.30
2018-12-26T20:41:30.470Z,3.20
2018-12-26T20:43:59.141Z,3.20
2018-12-26T20:46:46.944Z,3.20
2018-12-26T20:49:15.404Z,3.20
2018-12-26T20:51:43.852Z,3.20
2018-12-26T20:54:12.376Z,3.30
2018-12-26T20:56:40.806Z,3.30
2018-12-26T20:59:09.263Z,3.30
2018-12-26T21:01:37.709Z,3.30
2018-12-26T21:04:07.115Z,3.20
2018-12-26T21:06:35.576Z,3.30
2018-12-26T21:09:06.483Z,3.30
2018-12-26T21:11:34.947Z,3.30
2018-12-26T21:14:03.399Z,3.30
2018-12-26T21:16:31.861Z,3.30
2018-12-26T21:19:00.287Z,3.30
2018-12-26T21:21:28.734Z,3.30
2018-12-26T21:23:57.232Z,3.40
2018-12-26T21:26:25.688Z,3.40
2018-12-26T21:28:54.201Z,3.40
2018-12-26T21:31:22.683Z,3.40
2018-12-26T21:33:51.200Z,3.50
2018-12-26T21:36:19.635Z,3.40
2018-12-26T21:38:48.088Z,3.40
2018-12-26T21:41:16.521Z,3.40
2018-12-26T21:43:45.225Z,3.40
2018-12-26T21:46:13.676Z,3.40
2018-12-26T21:48:42.240Z,3.40
2018-12-26T21:51:10.672Z,3.40
2018-12-26T21:53:39.123Z,3.30
2018-12-26T21:56:07.572Z,3.40
2018-12-26T21:58:36.078Z,3.30
2018-12-26T22:01:04.599Z,3.30
2018-12-26T22:03:33.043Z,3.30
2018-12-26T22:06:01.504Z,3.30
2018-12-26T22:08:29.967Z,3.20
2018-12-26T22:10:58.509Z,3.20
2018-12-26T22:13:27.117Z,3.20
2018-12-26T22:15:55.608Z,3.20
2018-12-26T22:18:24.178Z,3.20
2018-12-26T22:20:52.744Z,3.20
2018-12-26T22:23:22.119Z,3.30
2018-12-26T22:25:50.731Z,3.30
2018-12-26T22:28:19.175Z,3.30
2018-12-26T22:30:47.813Z,3.30
2018-12-26T22:33:16.242Z,3.40
2018-12-26T22:35:45.659Z,3.40
2018-12-26T22:38:14.191Z,3.40
2018-12-26T22:40:42.636Z,3.40
2018-12-26T22:43:11.107Z,3.40
2018-12-26T22:45:43.953Z,3.40
2018-12-26T22:48:09.787Z,3.40
2018-12-26T22:50:38.228Z,3.40
2018-12-26T22:53:06.672Z,3.40
2018-12-26T22:55:35.130Z,3.30
2018-12-26T22:58:03.575Z,3.30
2018-12-26T23:00:33.656Z,3.30
2018-12-26T23:03:02.095Z,3.30
2018-12-26T23:05:30.552Z,3.40
2018-12-26T23:07:59.010Z,3.40
2018-12-26T23:10:27.463Z,3.40
2018-12-26T23:12:55.896Z,3.40
2018-12-26T23:15:24.339Z,3.40
2018-12-26T23:17:54.851Z,3.40
2018-12-26T23:20:23.320Z,3.40
2018-12-26T23:22:52.744Z,3.30
2018-12-26T23:25:21.238Z,3.30
2018-12-26T23:27:49.674Z,3.40
2018-12-26T23:30:18.116Z,3.40
2018-12-26T23:32:47.169Z,3.40
2018-12-26T23:35:15.975Z,3.40
2018-12-26T23:37:44.428Z,3.40
2018-12-26T23:40:12.952Z,3.40
2018-12-26T23:42:41.411Z,3.40
2018-12-26T23:45:09.903Z,3.40
2018-12-26T23:47:39.492Z,3.30
2018-12-26T23:50:07.927Z,3.30
2018-12-26T23:52:36.367Z,3.40
2018-12-26T23:55:05.355Z,3.40
2018-12-26T23:57:33.784Z,3.40
